Irenes Remedy — A8WG3 — position and weather

sailwx.info

Track history (hours):
 
Tides and Currents Weather Stations Pressure Air Temp Water Temp Dewpoint Dewpoint Depression Visibility Wind Speed Wind Dir Waves Ship Positions

Irenes Remedy

Last reported at 2018-Feb-21 05:59 UTC. Time now 2018-Feb-25 10:06 UTC.
Position N 38°08' W 009°60'.

Length 222 m; draft 10.1 m.

Type: Cargo ship. MMSI: 636014740.

Date/timePositionNaut miles runAvg speedWind from/ knotsBaromVisibWave heightAir tempDewpointWater temp
2018-Feb-21 05:59N 38°08' W 009°60'817.7
2018-Feb-21 05:30N 38°17' W 010°02'918.0
2018-Feb-21 05:01N 38°25' W 010°04'917.9
2018-Feb-21 04:30N 38°34' W 010°06'1017.4
2018-Feb-21 03:56N 38°44' W 010°06'817.5
2018-Feb-21 03:30N 38°52' W 010°07'917.1
2018-Feb-21 02:59N 39°01' W 010°07'817.4
2018-Feb-21 02:30N 39°09' W 010°07'917.4
2018-Feb-21 01:58N 39°18' W 010°07'1217.4
2018-Feb-21 01:17N 39°30' W 010°07'517.3
2018-Feb-21 01:00N 39°35' W 010°06'1417.2
2018-Feb-21 00:09N 39°50' W 010°06'66417.0
2018-Feb-19 09:09N 49°48' W 003°22'215.5
2018-Feb-19 09:00N 49°49' W 003°19'1015.4
2018-Feb-19 08:21N 49°54' W 003°05'515.5
2018-Feb-19 08:00N 49°57' W 002°58'815.6
2018-Feb-19 07:29N 49°59' W 002°46'1016.6
2018-Feb-19 06:52N 50°01' W 002°31'3319.1
2018-Feb-19 05:09N 50°10' W 001°41'321.0
2018-Feb-19 05:00N 50°11' W 001°37'4820.7
2018-Feb-19 02:41N 50°24' W 000°25'419.3
2018-Feb-19 02:30N 50°25' W 000°19'918.7
2018-Feb-19 02:01N 50°27' W 000°05'918.0
2018-Feb-19 01:30N 50°30' E 000°08'917.3
2018-Feb-19 01:01N 50°32' E 000°21'816.7
2018-Feb-19 00:30N 50°34' E 000°34'816.4
2018-Feb-19 00:01N 50°39' E 000°45'816.3
2018-Feb-18 23:31N 50°44' E 000°54'816.7
2018-Feb-18 23:00N 50°49' E 001°05'917.7
2018-Feb-18 22:29N 50°55' E 001°17'919.4
2018-Feb-18 22:01N 51°01' E 001°27'1020.8
2018-Feb-18 21:31N 51°08' E 001°39'1019.9
2018-Feb-18 21:01N 51°16' E 001°49'1019.2
2018-Feb-18 20:30N 51°25' E 001°56'918.6
2018-Feb-18 20:00N 51°32' E 002°05'918.1
2018-Feb-18 19:30N 51°39' E 002°15'25316.7
2018-Feb-18 04:23N 54°01' E 008°01'1015.6
2018-Feb-18 03:42N 54°00' E 008°19'617.2
2018-Feb-18 03:21N 53°59' E 008°29'515.9
2018-Feb-18 03:00N 53°57' E 008°38'713.7
2018-Feb-18 02:30N 53°52' E 008°45'611.5
2018-Feb-18 02:00N 53°51' E 008°55'612.4
2018-Feb-18 01:30N 53°52' E 009°05'5 9.6
2018-Feb-18 01:00N 53°53' E 009°13'611.2
2018-Feb-18 00:31N 53°50' E 009°21'611.6
2018-Feb-18 00:00N 53°45' E 009°25'510.5
2018-Feb-17 23:30N 53°41' E 009°30'612.5
2018-Feb-17 23:00N 53°36' E 009°36'612.8
2018-Feb-17 22:30N 53°34' E 009°46'5 9.9
2018-Feb-17 22:00N 53°33' E 009°55'3 4.9
2018-Feb-17 21:29N 53°30' E 009°56'0 0.1
2018-Feb-17 20:59N 53°30' E 009°56'0 0.0
2018-Feb-17 20:29N 53°30' E 009°56'0 0.0
2018-Feb-17 19:59N 53°30' E 009°56'0 0.0
2018-Feb-17 19:29N 53°30' E 009°56'0 0.0
2018-Feb-17 18:59N 53°30' E 009°56'0 0.0
2018-Feb-17 18:29N 53°30' E 009°56'0 0.0
2018-Feb-17 17:59N 53°30' E 009°56'0 0.0
2018-Feb-17 17:29N 53°30' E 009°56'0 0.1
2018-Feb-17 16:59N 53°30' E 009°56'0 0.1
2018-Feb-17 16:29N 53°30' E 009°56'0 0.0
2018-Feb-17 15:59N 53°30' E 009°56'0 0.0
2018-Feb-17 15:29N 53°30' E 009°56'0 0.0
2018-Feb-17 14:59N 53°30' E 009°56'0 0.0
2018-Feb-17 14:29N 53°30' E 009°56'0 0.0
2018-Feb-17 13:59N 53°30' E 009°56'0 0.0
2018-Feb-17 13:29N 53°30' E 009°56'0 0.1
2018-Feb-17 12:59N 53°30' E 009°56'0 0.1
2018-Feb-17 12:29N 53°30' E 009°56'0 0.0
2018-Feb-17 11:59N 53°30' E 009°56'0 0.0
2018-Feb-17 11:29N 53°30' E 009°56'0 0.0
2018-Feb-17 10:59N 53°30' E 009°56'0 0.0
2018-Feb-17 10:29N 53°30' E 009°56'0 0.0
2018-Feb-17 09:59N 53°30' E 009°56'0 0.0
2018-Feb-17 09:29N 53°30' E 009°56'0 0.0
2018-Feb-17 08:59N 53°30' E 009°56'0 0.1
2018-Feb-17 08:29N 53°30' E 009°56'0 0.1
2018-Feb-17 07:59N 53°30' E 009°56'0 0.0
2018-Feb-17 07:29N 53°30' E 009°56'0 0.0
2018-Feb-17 06:59N 53°30' E 009°56'0 0.0
2018-Feb-17 06:29N 53°30' E 009°56'0 0.0
2018-Feb-17 05:59N 53°30' E 009°56'0 0.0
2018-Feb-17 05:29N 53°30' E 009°56'0 0.0
2018-Feb-17 04:59N 53°30' E 009°56'0 0.0
2018-Feb-17 04:29N 53°30' E 009°56'0 0.0
2018-Feb-17 03:59N 53°30' E 009°56'0 0.0
2018-Feb-17 03:29N 53°30' E 009°56'0 0.0
2018-Feb-17 02:59N 53°30' E 009°56'0 0.0
2018-Feb-17 02:29N 53°30' E 009°56'0 0.0
2018-Feb-17 01:59N 53°30' E 009°56'0 0.0
2018-Feb-17 01:29N 53°30' E 009°56'0 0.1
2018-Feb-17 01:01N 53°30' E 009°56'2 4.4
2018-Feb-17 00:31N 53°32' E 009°56'510.0
2018-Feb-17 00:01N 53°33' E 009°48'510.2
2018-Feb-16 23:31N 53°34' E 009°39'612.0
2018-Feb-16 23:01N 53°38' E 009°32'510.9
2018-Feb-16 22:31N 53°43' E 009°28'611.3
2018-Feb-16 22:01N 53°48' E 009°23'612.1
2018-Feb-16 21:30N 53°52' E 009°16'5 9.8
2018-Feb-16 21:00N 53°53' E 009°07'612.0
2018-Feb-16 20:30N 53°51' E 008°58'612.4
2018-Feb-16 20:00N 53°50' E 008°47'5 9.7
2018-Feb-16 19:30N 53°54' E 008°41'1411.9
2018-Feb-16 18:18N 53°60' E 008°19'412.5
2018-Feb-16 17:58N 53°60' E 008°12'5 9.8
2018-Feb-16 17:25N 53°59' E 008°03'614.5
2018-Feb-16 16:59N 53°57' E 007°52'13215.1
2018-Feb-16 08:16N 53°07' E 004°28'518.5
2018-Feb-16 08:00N 53°03' E 004°24'918.4
2018-Feb-16 07:30N 52°54' E 004°17'918.5
2018-Feb-16 06:59N 52°46' E 004°09'2618.9
2018-Feb-16 05:37N 52°25' E 003°43'319.1
2018-Feb-16 05:27N 52°23' E 003°41'5015.0
2018-Feb-16 02:08N 51°34' E 003°25'215.2
2018-Feb-16 02:00N 51°32' E 003°26'713.9
2018-Feb-16 01:30N 51°27' E 003°33'3 6.7
2018-Feb-16 01:00N 51°26' E 003°38'510.1
2018-Feb-16 00:30N 51°23' E 003°44'611.7
2018-Feb-16 00:00N 51°21' E 003°53'611.8
2018-Feb-15 23:30N 51°26' E 003°58'510.0
2018-Feb-15 23:00N 51°22' E 004°04'611.0
2018-Feb-15 22:30N 51°23' E 004°13'510.1
2018-Feb-15 22:00N 51°19' E 004°16'2 2.9
2018-Feb-15 21:29N 51°17' E 004°16'0 0.0
2018-Feb-15 20:59N 51°17' E 004°16'0 0.0
2018-Feb-15 20:29N 51°17' E 004°16'0 0.0
2018-Feb-15 19:56N 51°17' E 004°16'0 0.0
2018-Feb-15 19:29N 51°17' E 004°16'0 0.0
2018-Feb-15 18:59N 51°17' E 004°16'0 0.0
2018-Feb-15 18:29N 51°17' E 004°16'0 0.0
2018-Feb-15 17:59N 51°17' E 004°16'0 0.0
2018-Feb-15 17:26N 51°17' E 004°16'0 0.0
2018-Feb-15 16:56N 51°17' E 004°16'0 0.1
2018-Feb-15 16:29N 51°17' E 004°16'0 0.0
2018-Feb-15 15:59N 51°17' E 004°16'0 0.1
2018-Feb-15 15:29N 51°17' E 004°16'0 0.0
2018-Feb-15 14:59N 51°17' E 004°16'0 0.0
2018-Feb-15 14:26N 51°17' E 004°16'0 0.0
2018-Feb-15 13:59N 51°17' E 004°16'0 0.0
2018-Feb-15 13:26N 51°17' E 004°16'0 0.1
2018-Feb-15 12:59N 51°17' E 004°16'0 0.0
2018-Feb-15 12:29N 51°17' E 004°16'0 0.0
2018-Feb-15 11:59N 51°17' E 004°16'0 0.0
2018-Feb-15 11:17N 51°17' E 004°16'0 0.0
2018-Feb-15 10:59N 51°17' E 004°16'0 0.0
2018-Feb-15 10:26N 51°17' E 004°16'0 0.0
2018-Feb-15 09:59N 51°17' E 004°16'0 0.0
2018-Feb-15 09:29N 51°17' E 004°16'0 0.0
2018-Feb-15 08:59N 51°17' E 004°16'0 0.0
2018-Feb-15 08:29N 51°17' E 004°16'0 0.0
2018-Feb-15 07:59N 51°17' E 004°16'0 0.0
2018-Feb-15 07:29N 51°17' E 004°16'0 0.0
2018-Feb-15 06:58N 51°17' E 004°16'0 0.0
2018-Feb-15 06:22N 51°17' E 004°16'0 0.0
2018-Feb-15 05:58N 51°17' E 004°16'0 0.0
2018-Feb-15 05:28N 51°17' E 004°16'0 0.0
2018-Feb-15 04:58N 51°17' E 004°16'0 0.0
2018-Feb-15 04:25N 51°17' E 004°16'0 0.0
2018-Feb-15 03:58N 51°17' E 004°16'0 0.0
2018-Feb-15 03:28N 51°17' E 004°16'0 0.0
2018-Feb-15 02:40N 51°17' E 004°16'0 0.0
2018-Feb-15 02:28N 51°17' E 004°16'0 0.0
2018-Feb-15 01:58N 51°17' E 004°16'0 0.0
2018-Feb-15 01:25N 51°17' E 004°16'0 0.0
2018-Feb-15 00:55N 51°17' E 004°16'0 0.0
2018-Feb-15 00:28N 51°17' E 004°16'0 0.0
2018-Feb-14 23:58N 51°17' E 004°16'0 0.0
2018-Feb-14 23:19N 51°17' E 004°16'0 0.0
2018-Feb-14 22:58N 51°17' E 004°16'0 0.5
2018-Feb-14 22:30N 51°18' E 004°16'3 6.8
2018-Feb-14 22:00N 51°21' E 004°15'5 9.4
2018-Feb-14 21:30N 51°22' E 004°08'510.9
2018-Feb-14 21:00N 51°26' E 004°01'612.0
2018-Feb-14 20:30N 51°22' E 003°54'611.8
2018-Feb-14 20:00N 51°22' E 003°45'611.3
2018-Feb-14 19:30N 51°26' E 003°39'610.0
2018-Feb-14 18:57N 51°25' E 003°30'511.8
2018-Feb-14 18:30N 51°24' E 003°22'612.6
2018-Feb-14 18:01N 51°24' E 003°12'713.8
2018-Feb-14 17:30N 51°25' E 003°01'714.4
2018-Feb-14 17:00N 51°25' E 002°49'510.6
2018-Feb-14 16:30N 51°24' E 002°41'0 1.0
2018-Feb-14 16:00N 51°25' E 002°40'0 0.1
2018-Feb-14 15:30N 51°25' E 002°40'0 0.0
2018-Feb-14 14:57N 51°25' E 002°40'0 0.0
2018-Feb-14 14:27N 51°25' E 002°40'0 0.0
2018-Feb-14 14:00N 51°25' E 002°40'0 0.0
2018-Feb-14 13:30N 51°25' E 002°40'0 0.0
2018-Feb-14 12:57N 51°25' E 002°40'0 0.0
2018-Feb-14 12:30N 51°25' E 002°40'0 0.0
2018-Feb-14 12:00N 51°25' E 002°40'0 0.0
2018-Feb-14 11:30N 51°25' E 002°40'0 0.0
2018-Feb-14 10:57N 51°25' E 002°40'0 0.1
2018-Feb-14 10:30N 51°25' E 002°40'0 0.1
2018-Feb-14 10:00N 51°25' E 002°40'0 0.1
2018-Feb-14 09:30N 51°25' E 002°40'0 0.0
2018-Feb-14 09:00N 51°25' E 002°40'0 0.1
2018-Feb-14 08:27N 51°25' E 002°40'0 0.1
2018-Feb-14 08:00N 51°25' E 002°40'0 0.1
2018-Feb-14 07:30N 51°25' E 002°40'0 0.0
2018-Feb-14 07:00N 51°25' E 002°40'0 0.0
2018-Feb-14 06:27N 51°25' E 002°40'0 0.0
2018-Feb-14 06:00N 51°25' E 002°40'0 0.1
2018-Feb-14 05:27N 51°25' E 002°40'0 0.1
2018-Feb-14 05:00N 51°25' E 002°40'0 0.0
2018-Feb-14 04:24N 51°25' E 002°40'0 0.1
2018-Feb-14 04:00N 51°25' E 002°40'0 0.0
2018-Feb-14 03:30N 51°25' E 002°40'0 0.1
2018-Feb-14 03:00N 51°25' E 002°40'0 0.0
2018-Feb-14 02:30N 51°25' E 002°40'0 0.0
2018-Feb-14 02:00N 51°25' E 002°40'0 0.0
2018-Feb-14 01:30N 51°25' E 002°40'0 0.0
2018-Feb-14 00:57N 51°25' E 002°40'0 0.0
2018-Feb-14 00:27N 51°25' E 002°40'0 0.0
2018-Feb-14 00:00N 51°25' E 002°40'0 0.0
2018-Feb-13 23:27N 51°25' E 002°40'0 0.0
2018-Feb-13 22:57N 51°25' E 002°40'0 0.1
2018-Feb-13 22:30N 51°25' E 002°40'0 0.1
2018-Feb-13 22:00N 51°25' E 002°40'0 0.1
2018-Feb-13 21:28N 51°25' E 002°40'0 0.2
2018-Feb-13 21:00N 51°25' E 002°40'2 3.4
2018-Feb-13 20:30N 51°24' E 002°37'510.0
2018-Feb-13 20:00N 51°22' E 002°30'511.1
2018-Feb-13 19:30N 51°20' E 002°22'611.2
2018-Feb-13 19:00N 51°18' E 002°14'611.3
2018-Feb-13 18:30N 51°15' E 002°06'611.5
2018-Feb-13 18:01N 51°12' E 001°58'611.6
2018-Feb-13 17:30N 51°09' E 001°50'611.6
2018-Feb-13 17:00N 51°05' E 001°44'611.9
2018-Feb-13 16:29N 51°00' E 001°38'612.5
2018-Feb-13 16:00N 50°56' E 001°31'713.2
2018-Feb-13 15:30N 50°50' E 001°26'10712.5
2018-Feb-13 06:55N 50°07' W 001°08'717.1
2018-Feb-13 06:31N 50°06' W 001°19'917.3
2018-Feb-13 06:00N 50°03' W 001°32'917.2
2018-Feb-13 05:30N 50°01' W 001°45'916.8
2018-Feb-13 05:00N 49°60' W 001°58'72216.2
2018-Feb-11 08:34N 39°21' W 009°52'118.1
2018-Feb-11 08:29N 39°20' W 009°52'918.0
2018-Feb-11 08:00N 39°11' W 009°51'917.8
2018-Feb-11 07:31N 39°02' W 009°51'917.9
2018-Feb-11 07:01N 38°53' W 009°51'917.9
2018-Feb-11 06:31N 38°44' W 009°50'918.0
2018-Feb-11 06:00N 38°35' W 009°49'  
Track history (hours):
 
Tides and Currents Weather Stations Pressure Air Temp Water Temp Dewpoint Dewpoint Depression Visibility Wind Speed Wind Dir Waves Ship Positions

Irenes Remedy

Last reported at 2018-Feb-21 05:59 UTC. Time now 2018-Feb-25 10:06 UTC.
Position N 38°08' W 009°60'.

Length 222 m; draft 10.1 m.

Type: Cargo ship. MMSI: 636014740.

Date/timePositionNaut miles runAvg speedWind from/ knotsBaromVisibWave heightAir tempDewpointWater temp
2018-Feb-21 05:59N 38°08' W 009°60'817.7
2018-Feb-21 05:30N 38°17' W 010°02'918.0
2018-Feb-21 05:01N 38°25' W 010°04'917.9
2018-Feb-21 04:30N 38°34' W 010°06'1017.4
2018-Feb-21 03:56N 38°44' W 010°06'817.5
2018-Feb-21 03:30N 38°52' W 010°07'917.1
2018-Feb-21 02:59N 39°01' W 010°07'817.4
2018-Feb-21 02:30N 39°09' W 010°07'917.4
2018-Feb-21 01:58N 39°18' W 010°07'1217.4
2018-Feb-21 01:17N 39°30' W 010°07'517.3
2018-Feb-21 01:00N 39°35' W 010°06'1417.2
2018-Feb-21 00:09N 39°50' W 010°06'66417.0
2018-Feb-19 09:09N 49°48' W 003°22'215.5
2018-Feb-19 09:00N 49°49' W 003°19'1015.4
2018-Feb-19 08:21N 49°54' W 003°05'515.5
2018-Feb-19 08:00N 49°57' W 002°58'815.6
2018-Feb-19 07:29N 49°59' W 002°46'1016.6
2018-Feb-19 06:52N 50°01' W 002°31'3319.1
2018-Feb-19 05:09N 50°10' W 001°41'321.0
2018-Feb-19 05:00N 50°11' W 001°37'4820.7
2018-Feb-19 02:41N 50°24' W 000°25'419.3
2018-Feb-19 02:30N 50°25' W 000°19'918.7
2018-Feb-19 02:01N 50°27' W 000°05'918.0
2018-Feb-19 01:30N 50°30' E 000°08'917.3
2018-Feb-19 01:01N 50°32' E 000°21'816.7
2018-Feb-19 00:30N 50°34' E 000°34'816.4
2018-Feb-19 00:01N 50°39' E 000°45'816.3
2018-Feb-18 23:31N 50°44' E 000°54'816.7
2018-Feb-18 23:00N 50°49' E 001°05'917.7
2018-Feb-18 22:29N 50°55' E 001°17'919.4
2018-Feb-18 22:01N 51°01' E 001°27'1020.8
2018-Feb-18 21:31N 51°08' E 001°39'1019.9
2018-Feb-18 21:01N 51°16' E 001°49'1019.2
2018-Feb-18 20:30N 51°25' E 001°56'918.6
2018-Feb-18 20:00N 51°32' E 002°05'918.1
2018-Feb-18 19:30N 51°39' E 002°15'25316.7
2018-Feb-18 04:23N 54°01' E 008°01'1015.6
2018-Feb-18 03:42N 54°00' E 008°19'617.2
2018-Feb-18 03:21N 53°59' E 008°29'515.9
2018-Feb-18 03:00N 53°57' E 008°38'713.7
2018-Feb-18 02:30N 53°52' E 008°45'611.5
2018-Feb-18 02:00N 53°51' E 008°55'612.4
2018-Feb-18 01:30N 53°52' E 009°05'5 9.6
2018-Feb-18 01:00N 53°53' E 009°13'611.2
2018-Feb-18 00:31N 53°50' E 009°21'611.6
2018-Feb-18 00:00N 53°45' E 009°25'510.5
2018-Feb-17 23:30N 53°41' E 009°30'612.5
2018-Feb-17 23:00N 53°36' E 009°36'612.8
2018-Feb-17 22:30N 53°34' E 009°46'5 9.9
2018-Feb-17 22:00N 53°33' E 009°55'3 4.9
2018-Feb-17 21:29N 53°30' E 009°56'0 0.1
2018-Feb-17 20:59N 53°30' E 009°56'0 0.0
2018-Feb-17 20:29N 53°30' E 009°56'0 0.0
2018-Feb-17 19:59N 53°30' E 009°56'0 0.0
2018-Feb-17 19:29N 53°30' E 009°56'0 0.0
2018-Feb-17 18:59N 53°30' E 009°56'0 0.0
2018-Feb-17 18:29N 53°30' E 009°56'0 0.0
2018-Feb-17 17:59N 53°30' E 009°56'0 0.0
2018-Feb-17 17:29N 53°30' E 009°56'0 0.1
2018-Feb-17 16:59N 53°30' E 009°56'0 0.1
2018-Feb-17 16:29N 53°30' E 009°56'0 0.0
2018-Feb-17 15:59N 53°30' E 009°56'0 0.0
2018-Feb-17 15:29N 53°30' E 009°56'0 0.0
2018-Feb-17 14:59N 53°30' E 009°56'0 0.0
2018-Feb-17 14:29N 53°30' E 009°56'0 0.0
2018-Feb-17 13:59N 53°30' E 009°56'0 0.0
2018-Feb-17 13:29N 53°30' E 009°56'0 0.1
2018-Feb-17 12:59N 53°30' E 009°56'0 0.1
2018-Feb-17 12:29N 53°30' E 009°56'0 0.0
2018-Feb-17 11:59N 53°30' E 009°56'0 0.0
2018-Feb-17 11:29N 53°30' E 009°56'0 0.0
2018-Feb-17 10:59N 53°30' E 009°56'0 0.0
2018-Feb-17 10:29N 53°30' E 009°56'0 0.0
2018-Feb-17 09:59N 53°30' E 009°56'0 0.0
2018-Feb-17 09:29N 53°30' E 009°56'0 0.0
2018-Feb-17 08:59N 53°30' E 009°56'0 0.1
2018-Feb-17 08:29N 53°30' E 009°56'0 0.1
2018-Feb-17 07:59N 53°30' E 009°56'0 0.0
2018-Feb-17 07:29N 53°30' E 009°56'0 0.0
2018-Feb-17 06:59N 53°30' E 009°56'0 0.0
2018-Feb-17 06:29N 53°30' E 009°56'0 0.0
2018-Feb-17 05:59N 53°30' E 009°56'0 0.0
2018-Feb-17 05:29N 53°30' E 009°56'0 0.0
2018-Feb-17 04:59N 53°30' E 009°56'0 0.0
2018-Feb-17 04:29N 53°30' E 009°56'0 0.0
2018-Feb-17 03:59N 53°30' E 009°56'0 0.0
2018-Feb-17 03:29N 53°30' E 009°56'0 0.0
2018-Feb-17 02:59N 53°30' E 009°56'0 0.0
2018-Feb-17 02:29N 53°30' E 009°56'0 0.0
2018-Feb-17 01:59N 53°30' E 009°56'0 0.0
2018-Feb-17 01:29N 53°30' E 009°56'0 0.1
2018-Feb-17 01:01N 53°30' E 009°56'2 4.4
2018-Feb-17 00:31N 53°32' E 009°56'510.0
2018-Feb-17 00:01N 53°33' E 009°48'510.2
2018-Feb-16 23:31N 53°34' E 009°39'612.0
2018-Feb-16 23:01N 53°38' E 009°32'510.9
2018-Feb-16 22:31N 53°43' E 009°28'611.3
2018-Feb-16 22:01N 53°48' E 009°23'612.1
2018-Feb-16 21:30N 53°52' E 009°16'5 9.8
2018-Feb-16 21:00N 53°53' E 009°07'612.0
2018-Feb-16 20:30N 53°51' E 008°58'612.4
2018-Feb-16 20:00N 53°50' E 008°47'5 9.7
2018-Feb-16 19:30N 53°54' E 008°41'1411.9
2018-Feb-16 18:18N 53°60' E 008°19'412.5
2018-Feb-16 17:58N 53°60' E 008°12'5 9.8
2018-Feb-16 17:25N 53°59' E 008°03'614.5
2018-Feb-16 16:59N 53°57' E 007°52'13215.1
2018-Feb-16 08:16N 53°07' E 004°28'518.5
2018-Feb-16 08:00N 53°03' E 004°24'918.4
2018-Feb-16 07:30N 52°54' E 004°17'918.5
2018-Feb-16 06:59N 52°46' E 004°09'2618.9
2018-Feb-16 05:37N 52°25' E 003°43'319.1
2018-Feb-16 05:27N 52°23' E 003°41'5015.0
2018-Feb-16 02:08N 51°34' E 003°25'215.2
2018-Feb-16 02:00N 51°32' E 003°26'713.9
2018-Feb-16 01:30N 51°27' E 003°33'3 6.7
2018-Feb-16 01:00N 51°26' E 003°38'510.1
2018-Feb-16 00:30N 51°23' E 003°44'611.7
2018-Feb-16 00:00N 51°21' E 003°53'611.8
2018-Feb-15 23:30N 51°26' E 003°58'510.0
2018-Feb-15 23:00N 51°22' E 004°04'611.0
2018-Feb-15 22:30N 51°23' E 004°13'510.1
2018-Feb-15 22:00N 51°19' E 004°16'2 2.9
2018-Feb-15 21:29N 51°17' E 004°16'0 0.0
2018-Feb-15 20:59N 51°17' E 004°16'0 0.0
2018-Feb-15 20:29N 51°17' E 004°16'0 0.0
2018-Feb-15 19:56N 51°17' E 004°16'0 0.0
2018-Feb-15 19:29N 51°17' E 004°16'0 0.0
2018-Feb-15 18:59N 51°17' E 004°16'0 0.0
2018-Feb-15 18:29N 51°17' E 004°16'0 0.0
2018-Feb-15 17:59N 51°17' E 004°16'0 0.0
2018-Feb-15 17:26N 51°17' E 004°16'0 0.0
2018-Feb-15 16:56N 51°17' E 004°16'0 0.1
2018-Feb-15 16:29N 51°17' E 004°16'0 0.0
2018-Feb-15 15:59N 51°17' E 004°16'0 0.1
2018-Feb-15 15:29N 51°17' E 004°16'0 0.0
2018-Feb-15 14:59N 51°17' E 004°16'0 0.0
2018-Feb-15 14:26N 51°17' E 004°16'0 0.0
2018-Feb-15 13:59N 51°17' E 004°16'0 0.0
2018-Feb-15 13:26N 51°17' E 004°16'0 0.1
2018-Feb-15 12:59N 51°17' E 004°16'0 0.0
2018-Feb-15 12:29N 51°17' E 004°16'0 0.0
2018-Feb-15 11:59N 51°17' E 004°16'0 0.0
2018-Feb-15 11:17N 51°17' E 004°16'0 0.0
2018-Feb-15 10:59N 51°17' E 004°16'0 0.0
2018-Feb-15 10:26N 51°17' E 004°16'0 0.0
2018-Feb-15 09:59N 51°17' E 004°16'0 0.0
2018-Feb-15 09:29N 51°17' E 004°16'0 0.0
2018-Feb-15 08:59N 51°17' E 004°16'0 0.0
2018-Feb-15 08:29N 51°17' E 004°16'0 0.0
2018-Feb-15 07:59N 51°17' E 004°16'0 0.0
2018-Feb-15 07:29N 51°17' E 004°16'0 0.0
2018-Feb-15 06:58N 51°17' E 004°16'0 0.0
2018-Feb-15 06:22N 51°17' E 004°16'0 0.0
2018-Feb-15 05:58N 51°17' E 004°16'0 0.0
2018-Feb-15 05:28N 51°17' E 004°16'0 0.0
2018-Feb-15 04:58N 51°17' E 004°16'0 0.0
2018-Feb-15 04:25N 51°17' E 004°16'0 0.0
2018-Feb-15 03:58N 51°17' E 004°16'0 0.0
2018-Feb-15 03:28N 51°17' E 004°16'0 0.0
2018-Feb-15 02:40N 51°17' E 004°16'0 0.0
2018-Feb-15 02:28N 51°17' E 004°16'0 0.0
2018-Feb-15 01:58N 51°17' E 004°16'0 0.0
2018-Feb-15 01:25N 51°17' E 004°16'0 0.0
2018-Feb-15 00:55N 51°17' E 004°16'0 0.0
2018-Feb-15 00:28N 51°17' E 004°16'0 0.0
2018-Feb-14 23:58N 51°17' E 004°16'0 0.0
2018-Feb-14 23:19N 51°17' E 004°16'0 0.0
2018-Feb-14 22:58N 51°17' E 004°16'0 0.5
2018-Feb-14 22:30N 51°18' E 004°16'3 6.8
2018-Feb-14 22:00N 51°21' E 004°15'5 9.4
2018-Feb-14 21:30N 51°22' E 004°08'510.9
2018-Feb-14 21:00N 51°26' E 004°01'612.0
2018-Feb-14 20:30N 51°22' E 003°54'611.8
2018-Feb-14 20:00N 51°22' E 003°45'611.3
2018-Feb-14 19:30N 51°26' E 003°39'610.0
2018-Feb-14 18:57N 51°25' E 003°30'511.8
2018-Feb-14 18:30N 51°24' E 003°22'612.6
2018-Feb-14 18:01N 51°24' E 003°12'713.8
2018-Feb-14 17:30N 51°25' E 003°01'714.4
2018-Feb-14 17:00N 51°25' E 002°49'510.6
2018-Feb-14 16:30N 51°24' E 002°41'0 1.0
2018-Feb-14 16:00N 51°25' E 002°40'0 0.1
2018-Feb-14 15:30N 51°25' E 002°40'0 0.0
2018-Feb-14 14:57N 51°25' E 002°40'0 0.0
2018-Feb-14 14:27N 51°25' E 002°40'0 0.0
2018-Feb-14 14:00N 51°25' E 002°40'0 0.0
2018-Feb-14 13:30N 51°25' E 002°40'0 0.0
2018-Feb-14 12:57N 51°25' E 002°40'0 0.0
2018-Feb-14 12:30N 51°25' E 002°40'0 0.0
2018-Feb-14 12:00N 51°25' E 002°40'0 0.0
2018-Feb-14 11:30N 51°25' E 002°40'0 0.0
2018-Feb-14 10:57N 51°25' E 002°40'0 0.1
2018-Feb-14 10:30N 51°25' E 002°40'0 0.1
2018-Feb-14 10:00N 51°25' E 002°40'0 0.1
2018-Feb-14 09:30N 51°25' E 002°40'0 0.0
2018-Feb-14 09:00N 51°25' E 002°40'0 0.1
2018-Feb-14 08:27N 51°25' E 002°40'0 0.1
2018-Feb-14 08:00N 51°25' E 002°40'0 0.1
2018-Feb-14 07:30N 51°25' E 002°40'0 0.0
2018-Feb-14 07:00N 51°25' E 002°40'0 0.0
2018-Feb-14 06:27N 51°25' E 002°40'0 0.0
2018-Feb-14 06:00N 51°25' E 002°40'0 0.1
2018-Feb-14 05:27N 51°25' E 002°40'0 0.1
2018-Feb-14 05:00N 51°25' E 002°40'0 0.0
2018-Feb-14 04:24N 51°25' E 002°40'0 0.1
2018-Feb-14 04:00N 51°25' E 002°40'0 0.0
2018-Feb-14 03:30N 51°25' E 002°40'0 0.1
2018-Feb-14 03:00N 51°25' E 002°40'0 0.0
2018-Feb-14 02:30N 51°25' E 002°40'0 0.0
2018-Feb-14 02:00N 51°25' E 002°40'0 0.0
2018-Feb-14 01:30N 51°25' E 002°40'0 0.0
2018-Feb-14 00:57N 51°25' E 002°40'0 0.0
2018-Feb-14 00:27N 51°25' E 002°40'0 0.0
2018-Feb-14 00:00N 51°25' E 002°40'0 0.0
2018-Feb-13 23:27N 51°25' E 002°40'0 0.0
2018-Feb-13 22:57N 51°25' E 002°40'0 0.1
2018-Feb-13 22:30N 51°25' E 002°40'0 0.1
2018-Feb-13 22:00N 51°25' E 002°40'0 0.1
2018-Feb-13 21:28N 51°25' E 002°40'0 0.2
2018-Feb-13 21:00N 51°25' E 002°40'2 3.4
2018-Feb-13 20:30N 51°24' E 002°37'510.0
2018-Feb-13 20:00N 51°22' E 002°30'511.1
2018-Feb-13 19:30N 51°20' E 002°22'611.2
2018-Feb-13 19:00N 51°18' E 002°14'611.3
2018-Feb-13 18:30N 51°15' E 002°06'611.5
2018-Feb-13 18:01N 51°12' E 001°58'611.6
2018-Feb-13 17:30N 51°09' E 001°50'611.6
2018-Feb-13 17:00N 51°05' E 001°44'611.9
2018-Feb-13 16:29N 51°00' E 001°38'612.5
2018-Feb-13 16:00N 50°56' E 001°31'713.2
2018-Feb-13 15:30N 50°50' E 001°26'10712.5
2018-Feb-13 06:55N 50°07' W 001°08'717.1
2018-Feb-13 06:31N 50°06' W 001°19'917.3
2018-Feb-13 06:00N 50°03' W 001°32'917.2
2018-Feb-13 05:30N 50°01' W 001°45'916.8
2018-Feb-13 05:00N 49°60' W 001°58'72216.2
2018-Feb-11 08:34N 39°21' W 009°52'118.1
2018-Feb-11 08:29N 39°20' W 009°52'918.0
2018-Feb-11 08:00N 39°11' W 009°51'917.8
2018-Feb-11 07:31N 39°02' W 009°51'917.9
2018-Feb-11 07:01N 38°53' W 009°51'917.9
2018-Feb-11 06:31N 38°44' W 009°50'918.0
2018-Feb-11 06:00N 38°35' W 009°49'  

Dump ship's entire track history